Time;durP1;ratioP1;P1;durP2;ratioP2;P2;SDS_P1;SDS_P2;PMS_P1;PMS_P2;Temp;Humidity;BMP_temperature;BMP_pressure;BME280_temperature;BME280_humidity;BME280_pressure;Samples;Min_cycle;Max_cycle;Signal;HPM_P1;HPM_P2
2022/06/24 00:00:37;;;;;;;5.20;3.90;;;23.60;66.10;;;;;;10414802;28;20044;-66
2022/06/24 00:05:38;;;;;;;5.85;3.38;;;23.60;66.10;;;;;;10413252;28;20033;-66
2022/06/24 00:10:39;;;;;;;4.72;3.17;;;23.60;66.10;;;;;;10412946;28;20033;-67
2022/06/24 00:15:40;;;;;;;5.38;3.92;;;23.60;66.10;;;;;;10413013;28;20057;-67
2022/06/24 00:20:47;;;;;;;4.55;3.90;;;23.60;66.10;;;;;;10396328;28;20047;-66
2022/06/24 00:25:49;;;;;;;4.38;3.92;;;23.60;66.10;;;;;;10412802;28;20037;-66
2022/06/24 00:30:52;;;;;;;6.65;3.45;;;23.60;66.10;;;;;;10412551;28;20401;-65
2022/06/24 00:35:59;;;;;;;6.05;3.50;;;23.60;66.10;;;;;;10428629;28;20046;-66
2022/06/24 00:41:13;;;;;;;5.47;3.33;;;23.60;66.10;;;;;;10412110;28;20037;-67
2022/06/24 00:46:24;;;;;;;6.82;4.40;;;23.60;66.10;;;;;;10412265;28;20099;-66
2022/06/24 00:51:37;;;;;;;5.38;3.40;;;23.60;66.10;;;;;;10414895;28;20490;-66
2022/06/24 00:56:38;;;;;;;4.97;3.30;;;23.60;66.10;;;;;;10412859;28;20151;-65
2022/06/24 01:01:42;;;;;;;10.95;4.40;;;23.60;66.10;;;;;;10411586;28;20029;-65
2022/06/24 01:06:45;;;;;;;6.95;3.63;;;23.60;66.10;;;;;;10410982;28;20045;-66
2022/06/24 01:11:45;;;;;;;4.43;3.47;;;23.60;66.10;;;;;;10411815;28;20414;-67
2022/06/24 01:16:46;;;;;;;4.60;3.78;;;23.60;66.10;;;;;;10411456;28;20112;-66
2022/06/24 01:21:50;;;;;;;5.90;4.53;;;23.60;66.10;;;;;;10411418;28;20032;-66
2022/06/24 01:26:57;;;;;;;5.38;4.20;;;23.60;66.30;;;;;;10394844;28;20426;-67
2022/06/24 01:31:59;;;;;;;6.05;3.70;;;23.60;66.30;;;;;;10418178;28;20478;-68
2022/06/24 01:37:00;;;;;;;6.25;4.07;;;23.60;66.10;;;;;;10418628;28;20076;-68
2022/06/24 01:42:00;;;;;;;6.65;3.92;;;23.60;66.40;;;;;;10418918;28;20033;-66
2022/06/24 01:47:02;;;;;;;5.10;4.30;;;23.60;66.40;;;;;;10391977;28;20490;-67
2022/06/24 01:52:03;;;;;;;5.80;4.80;;;23.60;66.40;;;;;;10424874;28;20040;-66
2022/06/24 01:57:04;;;;;;;4.38;3.88;;;23.60;66.50;;;;;;10419747;28;20037;-66
2022/06/24 02:02:05;;;;;;;5.88;4.25;;;23.50;66.50;;;;;;10419488;28;20038;-66
2022/06/24 02:07:06;;;;;;;4.85;4.15;;;23.60;66.40;;;;;;10431808;28;20472;-66
2022/06/24 02:17:26;;;;;;;4.63;3.55;;;23.50;66.30;;;;;;10419204;28;20529;-66
2022/06/24 02:22:27;;;;;;;6.00;3.88;;;23.60;66.30;;;;;;10417940;28;20033;-66
2022/06/24 02:27:28;;;;;;;6.30;4.20;;;23.60;66.20;;;;;;10418686;28;20036;-67
2022/06/24 02:32:28;;;;;;;4.65;3.63;;;23.50;66.20;;;;;;10400217;28;20053;-65
2022/06/24 02:37:29;;;;;;;4.30;3.60;;;23.50;66.20;;;;;;10416814;28;20122;-66
2022/06/24 02:42:29;;;;;;;5.20;3.75;;;23.50;66.10;;;;;;10417192;28;20527;-66
2022/06/24 02:47:30;;;;;;;4.47;3.03;;;23.50;66.00;;;;;;10410206;28;20025;-66
2022/06/24 02:52:31;;;;;;;3.85;3.20;;;23.50;66.10;;;;;;10426050;28;20129;-66
2022/06/24 02:57:32;;;;;;;3.90;3.00;;;23.50;66.10;;;;;;10416016;28;20034;-67
2022/06/24 03:02:33;;;;;;;3.70;3.30;;;23.50;66.00;;;;;;10416440;28;20056;-66
2022/06/24 03:07:33;;;;;;;4.30;2.90;;;23.50;66.00;;;;;;10417276;28;20041;-67
2022/06/24 03:12:34;;;;;;;4.05;3.40;;;23.50;66.00;;;;;;10415592;28;20068;-67
2022/06/24 03:17:35;;;;;;;3.85;3.15;;;23.50;66.00;;;;;;10415539;28;20038;-67
2022/06/24 03:22:36;;;;;;;3.85;3.00;;;23.50;66.00;;;;;;10416636;28;20036;-67
2022/06/24 03:27:38;;;;;;;3.97;2.72;;;23.50;66.00;;;;;;10414705;28;20116;-65
2022/06/24 03:32:40;;;;;;;3.97;3.13;;;23.50;65.90;;;;;;10412395;28;20025;-65
2022/06/24 03:37:41;;;;;;;4.63;3.28;;;23.50;65.90;;;;;;10411069;28;20041;-66
2022/06/24 03:42:41;;;;;;;3.83;2.67;;;23.50;65.90;;;;;;10414425;28;20120;-67
2022/06/24 03:47:42;;;;;;;3.20;2.90;;;23.50;65.80;;;;;;10415657;28;20478;-66
2022/06/24 03:52:43;;;;;;;4.95;3.50;;;23.50;65.70;;;;;;10420011;28;20065;-66
2022/06/24 03:57:44;;;;;;;3.55;3.22;;;23.50;66.00;;;;;;10413563;28;20026;-67
2022/06/24 04:02:44;;;;;;;4.85;3.13;;;23.50;65.80;;;;;;10401966;28;20044;-67
2022/06/24 04:07:45;;;;;;;4.03;3.42;;;23.50;65.80;;;;;;10407568;28;20037;-67
2022/06/24 04:12:46;;;;;;;4.70;3.17;;;23.50;65.80;;;;;;10429493;28;20558;-67
2022/06/24 04:17:49;;;;;;;4.07;3.10;;;23.50;65.80;;;;;;10412737;28;20033;-66
2022/06/24 04:22:49;;;;;;;4.78;4.28;;;23.50;65.90;;;;;;10412776;28;20034;-67
2022/06/24 04:27:50;;;;;;;4.47;3.85;;;23.50;66.00;;;;;;10412788;28;20576;-66
2022/06/24 04:32:51;;;;;;;5.20;4.70;;;23.50;66.00;;;;;;10414166;28;20171;-66
2022/06/24 04:37:51;;;;;;;4.90;4.40;;;23.50;66.00;;;;;;10411117;28;20040;-66
2022/06/24 04:42:52;;;;;;;5.53;5.05;;;23.50;66.00;;;;;;10411575;28;20039;-66
2022/06/24 04:47:53;;;;;;;5.20;4.70;;;23.60;66.10;;;;;;10402961;28;20061;-65
2022/06/24 04:52:54;;;;;;;5.50;4.05;;;23.50;66.20;;;;;;10420663;28;20033;-67
2022/06/24 04:57:54;;;;;;;5.72;3.47;;;23.50;66.90;;;;;;10414296;28;20022;-67
2022/06/24 05:02:55;;;;;;;7.10;3.90;;;23.60;66.80;;;;;;10410989;28;20057;-65
2022/06/24 05:07:56;;;;;;;8.18;3.90;;;23.60;67.50;;;;;;10413177;28;20064;-63
2022/06/24 05:12:57;;;;;;;6.45;3.40;;;23.60;67.10;;;;;;10413880;28;20028;-64
2022/06/24 05:17:58;;;;;;;9.20;3.58;;;23.70;68.20;;;;;;10409449;28;20855;-65
2022/06/24 05:22:58;;;;;;;7.13;4.43;;;23.70;68.20;;;;;;10404156;28;20065;-66
2022/06/24 05:27:59;;;;;;;7.07;3.35;;;23.70;68.50;;;;;;10411480;28;20160;-63
2022/06/24 05:33:00;;;;;;;12.25;3.70;;;23.70;68.30;;;;;;10412595;28;20038;-70
2022/06/24 05:38:00;;;;;;;9.07;3.20;;;23.70;67.50;;;;;;10411258;28;20062;-67
2022/06/24 05:43:01;;;;;;;22.25;4.03;;;23.70;67.70;;;;;;10412030;28;20512;-68
2022/06/24 05:48:02;;;;;;;11.60;2.80;;;23.70;67.70;;;;;;10412383;28;20112;-69
2022/06/24 05:58:23;;;;;;;46.50;5.43;;;23.70;67.70;;;;;;10410873;28;20069;-64
2022/06/24 06:03:25;;;;;;;25.30;5.07;;;23.70;67.90;;;;;;10410740;28;20057;-65
2022/06/24 06:08:26;;;;;;;23.05;4.13;;;23.70;68.00;;;;;;10400139;28;20043;-65
2022/06/24 06:13:27;;;;;;;43.22;6.03;;;23.70;67.80;;;;;;10402614;28;20044;-68
2022/06/24 06:18:28;;;;;;;32.95;5.60;;;23.70;67.90;;;;;;10417495;28;20021;-68
2022/06/24 06:23:29;;;;;;;33.15;5.25;;;23.70;67.60;;;;;;10417187;28;20055;-68
2022/06/24 06:28:30;;;;;;;34.70;4.63;;;23.70;67.70;;;;;;10416123;28;20042;-68
2022/06/24 06:33:33;;;;;;;29.13;5.28;;;23.60;67.80;;;;;;10416308;28;20486;-69
2022/06/24 06:38:34;;;;;;;24.10;4.43;;;23.60;67.90;;;;;;10415980;28;20046;-70
2022/06/24 06:43:35;;;;;;;15.05;3.85;;;23.60;67.60;;;;;;10414735;28;20112;-66
2022/06/24 06:48:36;;;;;;;14.18;3.40;;;23.60;68.60;;;;;;10418252;28;20029;-68
2022/06/24 06:53:37;;;;;;;18.50;5.00;;;23.60;68.20;;;;;;10415185;28;20029;-69
2022/06/24 06:58:37;;;;;;;14.07;3.88;;;23.60;67.90;;;;;;10414739;28;20040;-70
2022/06/24 07:03:38;;;;;;;11.63;3.60;;;23.60;68.10;;;;;;10415463;28;20057;-69
2022/06/24 07:08:40;;;;;;;13.85;3.63;;;23.60;68.10;;;;;;10416486;28;20060;-70
2022/06/24 07:13:41;;;;;;;11.75;3.33;;;23.60;68.40;;;;;;10415131;28;20042;-75
2022/06/24 07:18:41;;;;;;;9.07;3.33;;;23.60;68.20;;;;;;10414716;28;20029;-71
2022/06/24 07:23:42;;;;;;;25.45;3.70;;;23.60;67.80;;;;;;10414445;28;20049;-64
2022/06/24 07:28:43;;;;;;;13.25;3.63;;;23.60;68.10;;;;;;10408152;28;20125;-56
2022/06/24 07:33:44;;;;;;;14.15;3.20;;;23.60;67.80;;;;;;10403710;28;20413;-55
2022/06/24 07:38:45;;;;;;;8.88;2.97;;;23.60;67.70;;;;;;10401547;28;20417;-65
2022/06/24 07:43:45;;;;;;;13.10;3.42;;;23.60;67.50;;;;;;10398641;28;20033;-65
2022/06/24 07:48:46;;;;;;;16.75;3.97;;;23.60;67.70;;;;;;10399922;28;20116;-64
2022/06/24 07:53:47;;;;;;;14.48;3.65;;;23.60;67.80;;;;;;10403013;28;20022;-64
2022/06/24 07:58:48;;;;;;;10.10;3.95;;;23.60;67.50;;;;;;10399851;28;20034;-64
2022/06/24 08:03:49;;;;;;;12.07;3.92;;;23.60;67.50;;;;;;10411337;28;20061;-66
2022/06/24 08:08:50;;;;;;;4.72;2.92;;;23.60;67.70;;;;;;10413013;28;20068;-64
2022/06/24 08:13:50;;;;;;;7.65;4.15;;;23.60;67.90;;;;;;10389588;28;20029;-64
2022/06/24 08:18:52;;;;;;;11.40;4.93;;;23.50;68.00;;;;;;10414457;28;20602;-63
2022/06/24 08:23:52;;;;;;;13.10;4.55;;;23.50;71.80;;;;;;10379939;23;20267;-66
2022/06/24 08:28:54;;;;;;;11.07;5.93;;;23.60;70.80;;;;;;10364737;28;20061;-68
2022/06/24 08:33:55;;;;;;;9.45;5.32;;;23.60;72.80;;;;;;10347289;28;20041;-67
2022/06/24 08:38:56;;;;;;;8.60;4.72;;;23.60;71.00;;;;;;10355583;28;20031;-67
2022/06/24 08:43:58;;;;;;;6.03;5.30;;;23.60;70.40;;;;;;10359222;28;20090;-68
2022/06/24 08:49:00;;;;;;;6.70;4.97;;;23.60;70.10;;;;;;10342706;28;20025;-67
2022/06/24 08:54:02;;;;;;;19.00;5.05;;;23.60;69.70;;;;;;10344971;28;20050;-67
2022/06/24 08:59:03;;;;;;;13.63;6.05;;;23.60;70.00;;;;;;10327145;28;20035;-67
2022/06/24 09:04:04;;;;;;;11.05;6.57;;;23.60;71.30;;;;;;10336421;28;20030;-69
2022/06/24 09:09:05;;;;;;;10.55;4.65;;;23.60;71.90;;;;;;10333437;28;20053;-64
2022/06/24 09:14:08;;;;;;;6.15;4.72;;;23.60;71.30;;;;;;10306754;28;20462;-66
2022/06/24 09:19:14;;;;;;;4.43;3.90;;;23.60;70.70;;;;;;10331428;28;20138;-67
2022/06/24 09:24:15;;;;;;;6.53;3.97;;;23.60;71.70;;;;;;10325652;28;67306;-67
2022/06/24 09:34:26;;;;;;;5.97;3.67;;;23.60;71.20;;;;;;8607112;26;20105;-64
2022/06/24 09:39:27;;;;;;;5.00;2.78;;;23.50;71.30;;;;;;10283622;28;20038;-64
2022/06/24 09:44:45;;;;;;;4.65;3.33;;;23.60;70.90;;;;;;10284152;28;20408;-65
2022/06/24 09:49:56;;;;;;;3.55;2.75;;;23.60;70.40;;;;;;10269561;28;20042;-64
2022/06/24 09:54:57;;;;;;;4.10;2.75;;;23.60;70.20;;;;;;10264500;28;20496;-64
2022/06/24 10:05:19;;;;;;;5.20;2.80;;;23.50;70.80;;;;;;10295196;28;20051;-64
2022/06/24 10:10:20;;;;;;;3.50;2.75;;;23.60;70.70;;;;;;10285315;28;20027;-63
2022/06/24 10:15:21;;;;;;;5.50;3.40;;;23.60;70.30;;;;;;10220027;28;20039;-63
2022/06/24 10:20:23;;;;;;;12.07;6.22;;;23.60;70.20;;;;;;10277209;28;20027;-59
2022/06/24 10:25:49;;;;;;;7.75;6.07;;;23.60;71.30;;;;;;10290691;28;20300;-59
2022/06/24 10:30:57;;;;;;;8.75;6.65;;;23.60;71.50;;;;;;10291407;28;20093;-61
2022/06/24 10:36:06;;;;;;;9.02;7.60;;;23.60;71.80;;;;;;10273085;28;20486;-60
2022/06/24 10:41:11;;;;;;;10.10;7.22;;;23.60;72.10;;;;;;10265508;28;20401;-60
2022/06/24 10:46:11;;;;;;;9.43;7.18;;;23.60;71.60;;;;;;10252545;28;20053;-61
2022/06/24 10:51:14;;;;;;;10.20;7.55;;;23.60;71.20;;;;;;10289995;28;20030;-60
2022/06/24 10:56:39;;;;;;;12.40;7.05;;;23.60;71.10;;;;;;10289708;28;20038;-59
2022/06/24 11:01:50;;;;;;;11.90;6.75;;;23.70;71.50;;;;;;10268476;28;20034;-62
2022/06/24 11:07:11;;;;;;;8.38;6.22;;;23.60;71.40;;;;;;10288412;28;20413;-60
2022/06/24 11:12:31;;;;;;;8.52;6.10;;;23.70;70.70;;;;;;10271817;28;20465;-59
2022/06/24 11:17:39;;;;;;;9.73;5.70;;;23.70;70.60;;;;;;10271806;28;20397;-61
2022/06/24 11:22:46;;;;;;;5.75;5.15;;;23.70;70.40;;;;;;10288225;28;20113;-59
2022/06/24 11:27:47;;;;;;;6.72;5.47;;;23.70;70.20;;;;;;10271804;28;20522;-61
2022/06/24 11:33:01;;;;;;;8.55;5.75;;;23.80;70.30;;;;;;10277561;28;20051;-62
2022/06/24 11:38:09;;;;;;;9.93;6.07;;;23.80;70.40;;;;;;10259392;28;20023;-60
2022/06/24 11:43:14;;;;;;;6.00;5.40;;;23.80;70.40;;;;;;10285823;28;20047;-60
2022/06/24 11:48:22;;;;;;;7.47;5.63;;;23.80;70.20;;;;;;10284412;28;20027;-60
2022/06/24 11:53:43;;;;;;;8.43;5.85;;;23.80;70.00;;;;;;10268450;28;20070;-60
2022/06/24 12:18:19;;;;;;;25.25;8.43;;;23.70;73.00;;;;;;10278954;28;20058;-59
2022/06/24 12:23:22;;;;;;;18.55;7.60;;;23.70;71.70;;;;;;10279671;28;20703;-58
2022/06/24 12:28:27;;;;;;;23.75;8.27;;;23.70;72.10;;;;;;10270726;28;20061;-59
2022/06/24 12:33:34;;;;;;;12.98;8.00;;;23.80;72.80;;;;;;10277001;28;20043;-58
2022/06/24 12:38:41;;;;;;;14.48;8.13;;;23.80;72.30;;;;;;10275572;28;20042;-58
2022/06/24 12:44:02;;;;;;;28.30;8.70;;;23.80;72.50;;;;;;10268682;28;20109;-59
2022/06/24 12:54:33;;;;;;;16.30;7.70;;;23.80;72.60;;;;;;10281039;28;20039;-57
2022/06/24 12:59:34;;;;;;;41.20;9.52;;;23.90;72.90;;;;;;10282591;28;20034;-57
2022/06/24 13:04:35;;;;;;;34.58;8.43;;;23.90;72.80;;;;;;10273200;28;20538;-57
2022/06/24 13:09:36;;;;;;;22.95;7.40;;;24.00;72.60;;;;;;10274553;28;20035;-59
2022/06/24 13:14:37;;;;;;;21.83;8.45;;;24.00;72.50;;;;;;10254275;28;20071;-58
2022/06/24 13:19:38;;;;;;;18.38;7.68;;;24.00;72.60;;;;;;10257174;28;20725;-57
2022/06/24 13:24:39;;;;;;;15.13;6.35;;;24.00;72.20;;;;;;10270268;28;20117;-60
2022/06/24 13:29:40;;;;;;;19.73;7.65;;;24.00;72.10;;;;;;10267662;28;20470;-62
2022/06/24 13:34:40;;;;;;;15.27;7.03;;;24.00;71.90;;;;;;10267522;28;20053;-59
2022/06/24 13:39:41;;;;;;;15.32;7.55;;;24.00;71.80;;;;;;10287247;28;20026;-60
2022/06/24 13:44:42;;;;;;;16.85;6.50;;;24.00;71.80;;;;;;10296717;28;20029;-58
2022/06/24 13:49:43;;;;;;;16.10;6.15;;;24.00;71.70;;;;;;10285810;28;20069;-60
2022/06/24 13:54:43;;;;;;;10.68;6.63;;;24.00;71.50;;;;;;10289358;28;20042;-61
2022/06/24 13:59:45;;;;;;;12.32;6.88;;;24.00;71.30;;;;;;10277527;28;20023;-61
2022/06/24 14:04:45;;;;;;;11.20;7.13;;;24.00;71.20;;;;;;10273148;28;20027;-60
2022/06/24 14:09:46;;;;;;;11.65;6.70;;;24.00;71.10;;;;;;10280991;28;20027;-59
2022/06/24 14:14:47;;;;;;;10.27;5.90;;;24.00;71.00;;;;;;10253476;28;20538;-59
2022/06/24 14:19:47;;;;;;;9.75;5.25;;;24.00;70.90;;;;;;10263487;28;20037;-61
2022/06/24 14:24:48;;;;;;;6.57;5.65;;;24.00;70.70;;;;;;10274344;28;20045;-60
2022/06/24 14:29:49;;;;;;;8.25;4.70;;;24.00;70.30;;;;;;10285890;28;20031;-59
2022/06/24 14:34:50;;;;;;;10.13;5.10;;;24.00;70.30;;;;;;10266811;28;20031;-58
2022/06/24 14:45:11;;;;;;;5.88;3.58;;;23.90;69.70;;;;;;10290102;28;20047;-59
2022/06/24 14:50:11;;;;;;;8.68;4.30;;;23.90;69.60;;;;;;10279074;28;20035;-58
2022/06/24 14:55:37;;;;;;;5.47;3.42;;;23.90;69.40;;;;;;10290795;28;20113;-59
2022/06/24 15:07:30;;;;;;;7.10;3.42;;;23.90;69.00;;;;;;10273762;28;20047;-59
2022/06/24 15:13:07;;;;;;;3.58;3.28;;;23.90;68.90;;;;;;10267278;28;20030;-59
2022/06/24 15:18:09;;;;;;;5.35;3.00;;;23.90;68.30;;;;;;10284881;28;20046;-60
2022/06/24 15:24:02;;;;;;;4.45;2.67;;;23.90;68.50;;;;;;10272889;28;20088;-60
2022/06/24 15:35:13;;;;;;;13.02;10.00;;;23.90;68.60;;;;;;10262094;28;20038;-61
2022/06/24 15:40:18;;;;;;;13.45;9.15;;;23.90;74.60;;;;;;10253274;28;20059;-61
2022/06/24 15:46:24;;;;;;;7.90;6.68;;;24.00;76.30;;;;;;10274290;28;20194;-61
2022/06/24 15:51:25;;;;;;;4.50;3.20;;;24.00;74.50;;;;;;10275925;28;20043;-62
2022/06/24 15:56:26;;;;;;;5.00;3.22;;;24.00;72.00;;;;;;10288894;28;20478;-60
2022/06/24 16:01:27;;;;;;;13.52;3.55;;;24.00;71.50;;;;;;10287984;28;20394;-58
2022/06/24 16:06:27;;;;;;;12.15;3.70;;;24.00;71.80;;;;;;10261021;28;20555;-59
2022/06/24 16:11:28;;;;;;;10.18;3.65;;;24.10;72.30;;;;;;10286228;28;20038;-57
2022/06/24 16:16:29;;;;;;;17.65;3.90;;;24.20;71.90;;;;;;10288191;28;20110;-57
2022/06/24 16:21:29;;;;;;;13.10;4.05;;;24.20;71.30;;;;;;10271818;28;20034;-55
2022/06/24 16:31:49;;;;;;;9.48;3.00;;;24.10;71.10;;;;;;10285317;28;20047;-57
2022/06/24 16:36:50;;;;;;;15.82;3.25;;;24.10;70.60;;;;;;10286174;28;20109;-62
2022/06/24 16:41:51;;;;;;;16.40;3.25;;;24.10;71.00;;;;;;10267538;28;20026;-58
2022/06/24 16:46:51;;;;;;;11.48;3.65;;;24.10;70.80;;;;;;10260783;28;20027;-58
2022/06/24 16:51:52;;;;;;;7.32;2.90;;;24.00;70.70;;;;;;10250837;28;20049;-59
2022/06/24 16:56:53;;;;;;;9.82;2.90;;;24.10;70.70;;;;;;10286495;28;20026;-59
2022/06/24 17:01:53;;;;;;;12.18;3.40;;;24.00;70.50;;;;;;10284919;28;20041;-57
2022/06/24 17:06:54;;;;;;;12.77;3.10;;;24.00;70.10;;;;;;10260751;28;20041;-59
2022/06/24 17:11:55;;;;;;;8.77;3.05;;;24.00;69.70;;;;;;10275931;28;20043;-60
2022/06/24 17:16:56;;;;;;;22.27;3.65;;;24.00;70.20;;;;;;10256731;28;20027;-59
2022/06/24 17:21:57;;;;;;;22.67;3.95;;;24.00;69.30;;;;;;10267420;28;20030;-60
2022/06/24 17:26:57;;;;;;;10.25;2.95;;;24.00;69.00;;;;;;10285140;28;20381;-60
2022/06/24 17:31:58;;;;;;;6.32;2.75;;;24.00;68.60;;;;;;10280180;28;20638;-61
2022/06/24 17:36:59;;;;;;;9.93;3.13;;;24.00;68.30;;;;;;10270415;28;20066;-61
2022/06/24 17:42:00;;;;;;;10.90;3.53;;;24.00;67.90;;;;;;10267670;28;20026;-60
2022/06/24 17:47:00;;;;;;;10.05;3.63;;;24.00;67.80;;;;;;10243238;28;20039;-62
2022/06/24 17:52:01;;;;;;;7.10;3.00;;;24.00;67.70;;;;;;10277761;28;20042;-62
2022/06/24 17:57:02;;;;;;;13.18;3.75;;;23.90;67.60;;;;;;10269472;28;20381;-62
2022/06/24 18:02:04;;;;;;;7.82;3.55;;;23.90;67.00;;;;;;10273470;28;20038;-63
2022/06/24 18:07:04;;;;;;;12.20;3.20;;;23.90;67.10;;;;;;10256221;28;20063;-62
2022/06/24 18:12:06;;;;;;;9.77;3.80;;;23.90;67.30;;;;;;10283057;28;20490;-62
2022/06/24 18:17:06;;;;;;;5.97;3.05;;;23.90;67.20;;;;;;10262511;28;20041;-62
2022/06/24 18:22:07;;;;;;;8.52;3.08;;;23.90;66.90;;;;;;10269950;28;20031;-62
2022/06/24 18:27:08;;;;;;;5.00;2.47;;;23.90;66.90;;;;;;10288034;28;20043;-62
2022/06/24 18:32:09;;;;;;;5.35;2.25;;;24.00;66.90;;;;;;10265913;28;20050;-62
2022/06/24 18:37:10;;;;;;;8.55;2.80;;;24.00;67.00;;;;;;10244387;28;20027;-62
2022/06/24 18:42:10;;;;;;;6.75;3.00;;;23.90;66.90;;;;;;10287897;28;20121;-64
2022/06/24 18:47:11;;;;;;;9.10;3.38;;;23.90;67.10;;;;;;10260759;28;20031;-63
2022/06/24 18:52:12;;;;;;;6.68;3.42;;;23.90;67.30;;;;;;10272952;28;20035;-63
2022/06/24 18:57:12;;;;;;;10.30;3.20;;;24.00;67.40;;;;;;10262052;28;20027;-64
2022/06/24 19:02:13;;;;;;;8.18;3.55;;;24.00;67.50;;;;;;10280367;28;20042;-64
2022/06/24 19:07:14;;;;;;;5.32;3.13;;;24.00;67.60;;;;;;10275189;28;20045;-63
2022/06/24 19:12:15;;;;;;;7.13;3.33;;;24.00;67.70;;;;;;10271458;28;20066;-63
2022/06/24 19:17:15;;;;;;;7.10;3.22;;;24.00;67.80;;;;;;10270994;28;20027;-63
2022/06/24 19:22:16;;;;;;;4.13;2.85;;;24.00;67.80;;;;;;10265841;28;20042;-63
2022/06/24 19:27:18;;;;;;;7.40;3.08;;;24.00;68.00;;;;;;10267597;28;20493;-63
2022/06/24 19:32:21;;;;;;;6.50;2.58;;;24.00;68.00;;;;;;10281619;28;20085;-64
2022/06/24 19:37:21;;;;;;;4.80;2.78;;;24.00;68.30;;;;;;10274448;28;20031;-63
2022/06/24 19:42:22;;;;;;;4.72;2.85;;;24.00;68.30;;;;;;10271918;28;20459;-64
2022/06/24 19:47:24;;;;;;;3.75;2.05;;;24.00;68.20;;;;;;10285702;28;20058;-64
2022/06/24 19:52:24;;;;;;;5.22;2.47;;;23.90;68.10;;;;;;10267538;28;20078;-64
2022/06/24 19:57:25;;;;;;;3.67;2.65;;;23.90;68.00;;;;;;10288205;28;20034;-64
2022/06/24 20:07:45;;;;;;;5.30;2.70;;;23.90;68.00;;;;;;10287930;28;20035;-64
2022/06/24 20:12:47;;;;;;;3.70;3.00;;;23.90;68.00;;;;;;10288198;28;20042;-64
2022/06/24 20:17:49;;;;;;;3.53;2.70;;;23.90;68.00;;;;;;10288360;28;20058;-63
2022/06/24 20:22:51;;;;;;;3.60;2.58;;;23.90;67.90;;;;;;10286829;28;20039;-63
2022/06/24 20:29:08;;;;;;;3.45;3.15;;;23.90;67.80;;;;;;10286629;28;20031;-64
2022/06/24 20:35:35;;;;;;;4.03;3.25;;;23.90;67.80;;;;;;10251293;28;20744;-65
2022/06/24 20:40:37;;;;;;;4.28;2.85;;;23.80;67.70;;;;;;10247728;28;20186;-64
2022/06/24 20:45:39;;;;;;;6.45;3.22;;;23.80;67.70;;;;;;10256796;28;20043;-64
2022/06/24 20:50:40;;;;;;;3.97;2.95;;;23.80;67.70;;;;;;10269871;28;20066;-63
2022/06/24 20:55:42;;;;;;;4.85;2.92;;;23.80;67.70;;;;;;10286237;28;20031;-63
2022/06/24 21:00:44;;;;;;;3.15;2.65;;;23.80;67.70;;;;;;10285261;28;20609;-63
2022/06/24 21:05:45;;;;;;;3.28;2.78;;;23.80;67.70;;;;;;10286549;28;20049;-63
2022/06/24 21:10:47;;;;;;;4.00;2.75;;;23.80;67.70;;;;;;10277346;28;20054;-64
2022/06/24 21:16:47;;;;;;;3.97;2.78;;;23.80;67.70;;;;;;10261809;28;20127;-64
2022/06/24 21:23:03;;;;;;;4.00;3.20;;;23.80;67.60;;;;;;10277328;28;20039;-63
2022/06/24 21:28:05;;;;;;;4.93;3.40;;;23.80;67.60;;;;;;10259663;28;20665;-63
2022/06/24 21:33:06;;;;;;;3.95;3.00;;;23.80;67.60;;;;;;10275097;28;20074;-64
2022/06/24 21:38:26;;;;;;;3.10;2.80;;;23.80;67.60;;;;;;10286485;28;20042;-64
2022/06/24 21:44:07;;;;;;;;;;;23.80;67.60;;;;;;10253358;28;20474;-64
2022/06/24 21:50:20;;;;;;;3.53;3.17;;;23.80;67.40;;;;;;10262424;28;19921;-64
2022/06/24 21:55:21;;;;;;;3.08;2.70;;;23.80;67.60;;;;;;10271451;28;20470;-63
2022/06/24 22:00:22;;;;;;;3.55;2.95;;;23.80;67.60;;;;;;10269079;28;20034;-64
2022/06/24 22:05:23;;;;;;;3.33;2.80;;;23.80;67.60;;;;;;10247229;29;20046;-63
2022/06/24 22:10:24;;;;;;;2.80;2.58;;;23.80;67.50;;;;;;10252710;28;20712;-63
2022/06/24 22:15:24;;;;;;;3.28;2.88;;;23.80;67.40;;;;;;10292676;28;20039;-63
2022/06/24 22:20:25;;;;;;;3.85;2.75;;;23.70;67.30;;;;;;10283153;28;20045;-63
2022/06/24 22:25:26;;;;;;;3.17;2.83;;;23.70;67.40;;;;;;10290764;28;20419;-64
2022/06/24 22:30:28;;;;;;;2.90;2.47;;;23.70;67.40;;;;;;10291326;28;20613;-64
2022/06/24 22:35:29;;;;;;;3.00;2.70;;;23.70;67.20;;;;;;10279185;28;20047;-63
2022/06/24 22:40:30;;;;;;;4.18;2.83;;;23.70;67.20;;;;;;10285683;28;20115;-64
2022/06/24 22:45:31;;;;;;;2.50;2.22;;;23.70;67.20;;;;;;10286261;28;20477;-64
2022/06/24 22:50:32;;;;;;;2.60;2.40;;;23.70;67.20;;;;;;10269706;28;20039;-64
2022/06/24 22:55:32;;;;;;;3.47;2.80;;;23.70;67.20;;;;;;10289254;28;20038;-63
2022/06/24 23:00:33;;;;;;;2.95;2.65;;;23.70;67.10;;;;;;10284060;28;20026;-63
2022/06/24 23:05:34;;;;;;;3.72;2.65;;;23.70;67.10;;;;;;10274181;28;20064;-63
2022/06/24 23:10:35;;;;;;;3.28;2.42;;;23.70;67.10;;;;;;10258660;28;20081;-64
2022/06/24 23:15:36;;;;;;;2.22;2.03;;;23.70;67.10;;;;;;10287678;28;20106;-64
2022/06/24 23:20:37;;;;;;;2.55;2.35;;;23.70;67.10;;;;;;10287426;28;20041;-63
2022/06/24 23:25:37;;;;;;;2.85;2.65;;;23.70;67.10;;;;;;10276381;28;20034;-63
2022/06/24 23:30:38;;;;;;;2.90;2.60;;;23.70;67.00;;;;;;10288760;28;20114;-64
2022/06/24 23:35:39;;;;;;;2.33;1.92;;;23.70;67.00;;;;;;10250943;28;1065390;-63
2022/06/24 23:40:50;;;;;;;2.30;2.10;;;23.70;67.00;;;;;;10261125;28;20039;-63
2022/06/24 23:45:52;;;;;;;2.88;2.58;;;23.70;67.00;;;;;;10284930;28;20034;-64
2022/06/24 23:56:12;;;;;;;2.78;2.58;;;23.70;67.00;;;;;;10248473;29;20039;-63
